Time;durP1;ratioP1;P1;durP2;ratioP2;P2;SDS_P1;SDS_P2;PMS_P1;PMS_P2;Temp;Humidity;BMP_temperature;BMP_pressure;BME280_temperature;BME280_humidity;BME280_pressure;Samples;Min_cycle;Max_cycle;Signal;HPM_P1;HPM_P2
2023/04/24 06:12:37;;;;;;;3.28;1.83;;;;;;;8.34;84.84;95719.81;2083380;28;20564;-62
2023/04/24 06:16:21;;;;;;;3.10;1.70;;;;;;;8.38;85.08;95715.31;2080090;28;20584;-62
2023/04/24 06:18:38;;;;;;;3.97;1.60;;;;;;;8.45;84.00;95714.09;2093019;27;20567;-62
2023/04/24 06:19:40;;;;;;;4.13;1.77;;;;;;;8.59;83.08;95719.44;2089633;28;20369;-63
2023/04/24 06:20:42;;;;;;;4.50;1.52;;;;;;;8.74;82.98;95720.41;2080655;28;20250;-62
2023/04/24 06:21:44;;;;;;;4.15;2.25;;;;;;;8.76;82.98;95713.38;2067610;28;20194;-58
2023/04/24 06:22:45;;;;;;;4.38;1.60;;;;;;;8.87;82.77;95727.59;2069657;28;20256;-58
2023/04/24 06:23:47;;;;;;;2.63;1.98;;;;;;;8.90;80.75;95730.03;2070179;28;20323;-57
2023/04/24 06:24:48;;;;;;;2.67;1.63;;;;;;;8.96;80.13;95724.50;2071249;28;20205;-57
2023/04/24 06:25:49;;;;;;;2.78;1.88;;;;;;;8.90;79.91;95723.06;2068498;28;20685;-58
2023/04/24 06:26:51;;;;;;;2.70;1.60;;;;;;;8.93;80.13;95722.06;2068654;28;20813;-58
2023/04/24 06:27:54;;;;;;;2.10;1.70;;;;;;;8.99;81.17;95725.19;2072371;28;20552;-57
2023/04/24 06:30:11;;;;;;;2.60;1.75;;;;;;;9.14;81.55;95720.94;2083317;28;20578;-57
2023/04/24 06:31:12;;;;;;;2.53;1.60;;;;;;;9.19;80.56;95731.09;2075105;28;20256;-57
2023/04/24 06:32:13;;;;;;;4.00;1.60;;;;;;;9.36;80.04;95727.59;2074447;28;20204;-58
2023/04/24 06:33:16;;;;;;;7.00;1.63;;;;;;;9.32;79.64;95715.66;2074965;28;20204;-58
2023/04/24 06:34:23;;;;;;;3.40;2.00;;;;;;;9.42;77.95;95729.84;2074208;28;20197;-57
2023/04/24 06:35:24;;;;;;;2.50;1.73;;;;;;;9.64;77.84;95726.91;2074215;28;20264;-57
2023/04/24 06:36:26;;;;;;;3.92;2.55;;;;;;;9.73;78.76;95722.94;2063894;28;20229;-58
2023/04/24 06:37:27;;;;;;;6.85;1.52;;;;;;;9.71;78.99;95727.38;2065089;28;20303;-58
2023/04/24 06:38:29;;;;;;;2.75;1.45;;;;;;;9.56;76.89;95718.69;2065276;28;20233;-58
2023/04/24 06:39:31;;;;;;;3.92;1.58;;;;;;;9.74;76.67;95731.63;2065217;28;20626;-57
2023/04/24 06:40:33;;;;;;;2.28;1.55;;;;;;;9.57;75.84;95728.19;2065899;28;20206;-57
2023/04/24 06:41:34;;;;;;;6.05;2.47;;;;;;;9.71;75.98;95722.16;2066313;28;20573;-58
2023/04/24 06:42:36;;;;;;;2.78;1.52;;;;;;;9.76;75.65;95719.31;2065791;28;20201;-57
2023/04/24 06:43:37;;;;;;;4.88;1.80;;;;;;;9.89;73.99;95715.09;2065591;28;20202;-57
2023/04/24 06:44:42;;;;;;;4.95;1.60;;;;;;;9.75;74.02;95715.03;2065867;28;20268;-58
2023/04/24 06:46:58;;;;;;;2.47;1.60;;;;;;;9.50;74.49;95720.75;2088925;28;20558;-58
2023/04/24 06:50:50;;;;;;;3.97;1.40;;;;;;;9.13;75.97;95721.03;2082283;28;20565;-57
2023/04/24 07:05:59;;;;;;;3.75;1.80;;;;;;;9.01;78.96;95743.31;2084247;28;20574;-57
2023/04/24 07:07:01;;;;;;;7.63;1.55;;;;;;;9.05;77.00;95737.03;2081999;28;20617;-57
2023/04/24 07:08:03;;;;;;;3.60;1.45;;;;;;;9.03;76.53;95745.84;2079267;28;20287;-57
2023/04/24 07:09:04;;;;;;;3.40;1.63;;;;;;;9.27;76.46;95734.13;2076803;28;20198;-58
2023/04/24 07:10:06;;;;;;;2.50;1.40;;;;;;;9.45;74.68;95736.66;2079433;28;20245;-57
2023/04/24 07:11:08;;;;;;;2.92;1.40;;;;;;;9.69;74.68;95728.41;2079562;28;20224;-58
2023/04/24 07:12:13;;;;;;;3.95;1.42;;;;;;;9.74;74.57;95736.84;2079840;28;20224;-57
2023/04/24 07:13:14;;;;;;;9.32;1.50;;;;;;;9.72;75.43;95734.28;2081036;28;20255;-57
2023/04/24 07:14:16;;;;;;;6.72;1.50;;;;;;;9.61;73.98;95734.03;2079002;28;20289;-58
2023/04/24 07:15:17;;;;;;;2.40;1.20;;;;;;;9.47;75.17;95732.19;2081264;28;20249;-57
2023/04/24 07:16:18;;;;;;;2.85;1.45;;;;;;;9.40;75.54;95729.09;2081416;28;20228;-57
2023/04/24 07:17:20;;;;;;;1.58;1.25;;;;;;;9.38;74.84;95737.91;2080011;28;20674;-57
2023/04/24 07:18:22;;;;;;;2.45;1.65;;;;;;;9.33;75.10;95740.75;2077504;28;20328;-57
2023/04/24 07:19:24;;;;;;;10.05;1.50;;;;;;;9.44;73.81;95735.81;2078553;28;20739;-57
2023/04/24 07:20:25;;;;;;;3.20;1.80;;;;;;;9.42;73.71;95734.22;2078020;28;20207;-58
2023/04/24 07:21:27;;;;;;;2.05;1.30;;;;;;;9.75;73.97;95741.94;2079721;28;20222;-57
2023/04/24 07:22:29;;;;;;;3.08;1.45;;;;;;;9.89;73.66;95737.72;2077765;28;20205;-58
2023/04/24 07:23:31;;;;;;;4.40;1.30;;;;;;;9.87;72.27;95729.16;2075760;28;20555;-57
2023/04/24 07:24:32;;;;;;;2.22;1.05;;;;;;;9.82;71.67;95741.63;2074995;28;20314;-58
2023/04/24 07:25:34;;;;;;;4.05;1.95;;;;;;;9.80;72.27;95746.88;2078266;28;20209;-58
2023/04/24 07:26:36;;;;;;;1.60;1.15;;;;;;;9.80;72.17;95741.69;2075589;28;20200;-58
2023/04/24 07:27:38;;;;;;;2.28;1.65;;;;;;;9.82;72.10;95752.88;2079929;28;20216;-57
2023/04/24 07:28:40;;;;;;;2.53;1.27;;;;;;;9.77;70.46;95752.28;2081812;28;20216;-57
2023/04/24 07:29:41;;;;;;;3.67;1.52;;;;;;;9.43;70.18;95755.00;2078279;28;20193;-57
2023/04/24 07:30:43;;;;;;;2.90;1.10;;;;;;;9.37;70.19;95746.66;2078284;28;20769;-57
2023/04/24 07:31:45;;;;;;;3.28;1.23;;;;;;;9.36;69.87;95752.78;2083618;28;20200;-57
2023/04/24 07:32:47;;;;;;;4.88;1.30;;;;;;;9.25;70.14;95762.00;2077068;28;20556;-57
2023/04/24 07:33:48;;;;;;;2.10;1.17;;;;;;;9.12;70.69;95753.19;2073635;28;20213;-57
2023/04/24 07:34:49;;;;;;;2.08;1.10;;;;;;;9.21;70.81;95760.50;2083929;28;20223;-57
2023/04/24 07:35:51;;;;;;;2.53;1.10;;;;;;;9.26;71.48;95768.09;2082261;28;20473;-57
2023/04/24 07:36:52;;;;;;;4.22;1.60;;;;;;;9.08;70.90;95764.69;2080405;28;20205;-57
2023/04/24 07:37:54;;;;;;;2.85;1.20;;;;;;;9.02;71.01;95770.22;2078437;28;20247;-56
2023/04/24 07:38:56;;;;;;;8.45;1.63;;;;;;;9.10;71.16;95770.66;2078078;28;20193;-56
2023/04/24 07:39:57;;;;;;;3.50;1.20;;;;;;;9.22;70.18;95764.78;2075242;28;20233;-59
2023/04/24 07:40:59;;;;;;;2.17;1.20;;;;;;;9.42;70.54;95768.94;2073301;28;20301;-59
2023/04/24 07:42:02;;;;;;;1.80;1.10;;;;;;;9.53;69.21;95776.16;2074389;28;20201;-59
2023/04/24 07:43:03;;;;;;;3.38;1.13;;;;;;;9.66;68.98;95775.50;2075378;28;20250;-59
2023/04/24 07:44:05;;;;;;;3.58;1.10;;;;;;;9.81;67.92;95774.66;2073771;28;20209;-59
2023/04/24 07:45:07;;;;;;;3.83;1.05;;;;;;;9.73;67.98;95769.88;2076707;28;20204;-59
2023/04/24 07:46:09;;;;;;;2.85;1.23;;;;;;;9.75;67.88;95772.38;2080730;28;20259;-60
2023/04/24 07:47:10;;;;;;;2.85;1.00;;;;;;;9.74;68.04;95783.75;2079765;28;20197;-60
2023/04/24 07:48:14;;;;;;;3.88;1.30;;;;;;;9.85;68.39;95778.75;2081342;28;20243;-59
2023/04/24 07:49:16;;;;;;;1.75;0.93;;;;;;;9.90;69.16;95776.78;2080076;28;20256;-59
2023/04/24 07:50:20;;;;;;;2.10;1.02;;;;;;;9.98;68.64;95773.72;2078066;28;20292;-60
2023/04/24 07:51:22;;;;;;;2.42;1.20;;;;;;;10.33;67.15;95776.09;2085770;28;20653;-59
2023/04/24 07:52:24;;;;;;;2.55;1.25;;;;;;;10.68;66.88;95782.81;2085434;28;20196;-59
2023/04/24 07:53:25;;;;;;;3.15;1.08;;;;;;;10.88;65.87;95772.06;2076655;28;20200;-59
2023/04/24 07:54:27;;;;;;;2.05;1.20;;;;;;;10.82;64.99;95784.63;2079172;28;20944;-59
2023/04/24 07:55:28;;;;;;;5.03;1.20;;;;;;;10.67;65.07;95787.22;2080758;28;20251;-59
2023/04/24 07:56:30;;;;;;;4.00;1.23;;;;;;;10.44;65.70;95783.34;2077690;28;20667;-59
2023/04/24 07:57:32;;;;;;;3.97;1.30;;;;;;;10.73;66.86;95794.69;2080625;28;20213;-59
2023/04/24 07:58:34;;;;;;;5.50;1.40;;;;;;;10.61;65.47;95780.59;2079354;28;20197;-59
2023/04/24 07:59:36;;;;;;;5.70;1.20;;;;;;;10.50;66.48;95797.78;2078679;28;20212;-60
2023/04/24 08:00:37;;;;;;;3.63;1.60;;;;;;;10.56;67.03;95794.84;2079422;28;20193;-59
2023/04/24 08:01:39;;;;;;;3.50;1.42;;;;;;;10.36;68.04;95806.41;2076807;28;20193;-59
2023/04/24 08:02:40;;;;;;;5.60;1.95;;;;;;;10.08;67.70;95797.50;2077852;28;20206;-59
2023/04/24 08:03:42;;;;;;;4.75;1.90;;;;;;;10.02;68.35;95809.13;2079496;28;20194;-60
2023/04/24 08:04:43;;;;;;;4.00;1.67;;;;;;;9.85;68.30;95804.00;2081015;28;20193;-60
2023/04/24 08:05:45;;;;;;;4.45;1.70;;;;;;;10.02;68.19;95816.09;2080260;28;20301;-60
2023/04/24 08:06:47;;;;;;;2.28;1.45;;;;;;;10.03;67.05;95796.94;2080622;28;20747;-59
2023/04/24 08:07:50;;;;;;;3.95;1.58;;;;;;;10.29;66.85;95806.72;2078756;28;20271;-59
2023/04/24 08:08:51;;;;;;;1.83;1.30;;;;;;;10.15;67.29;95811.91;2078727;28;20203;-59
2023/04/24 08:09:53;;;;;;;4.90;1.40;;;;;;;10.05;68.19;95814.16;2075342;28;20204;-59
2023/04/24 08:10:54;;;;;;;4.57;1.60;;;;;;;10.00;69.80;95813.59;2078241;28;20225;-60
2023/04/24 08:11:56;;;;;;;4.30;1.42;;;;;;;9.92;68.74;95816.63;2075404;28;20197;-59
2023/04/24 08:12:57;;;;;;;3.25;1.38;;;;;;;9.74;67.71;95815.03;2080240;28;20193;-59
2023/04/24 08:13:59;;;;;;;2.80;1.30;;;;;;;9.68;68.43;95817.97;2078932;28;20203;-60
2023/04/24 08:15:00;;;;;;;2.53;1.20;;;;;;;9.48;68.64;95806.84;2087948;28;20197;-59
2023/04/24 08:16:02;;;;;;;2.25;1.30;;;;;;;9.50;68.03;95812.84;2080264;28;20213;-60
2023/04/24 08:17:04;;;;;;;3.58;1.63;;;;;;;9.36;68.37;95821.38;2076395;28;20229;-59
2023/04/24 08:18:05;;;;;;;3.03;1.70;;;;;;;9.31;68.86;95824.22;2071071;28;20209;-59
2023/04/24 08:19:07;;;;;;;3.38;1.80;;;;;;;9.26;69.72;95820.19;2071490;28;20194;-60
2023/04/24 08:20:13;;;;;;;4.10;1.70;;;;;;;9.15;69.95;95812.91;2070228;28;20677;-61
2023/04/24 08:21:17;;;;;;;3.00;1.80;;;;;;;9.35;70.59;95827.50;2072321;28;20225;-60
2023/04/24 08:22:18;;;;;;;5.07;1.35;;;;;;;9.10;69.69;95827.94;2071895;28;20201;-59
2023/04/24 08:23:20;;;;;;;3.60;1.40;;;;;;;8.92;70.90;95820.16;2068828;28;20197;-59
2023/04/24 08:31:43;;;;;;;2.55;1.42;;;;;;;8.54;70.77;95843.75;2101798;27;20521;-57
2023/04/24 08:32:44;;;;;;;3.45;1.45;;;;;;;8.55;70.40;95845.44;2100246;28;20220;-57
2023/04/24 08:33:47;;;;;;;5.28;2.13;;;;;;;8.56;69.30;95847.13;2103223;28;20230;-57
2023/04/24 08:34:48;;;;;;;5.80;3.00;;;;;;;8.65;69.69;95849.28;2103417;28;20226;-57
2023/04/24 08:35:50;;;;;;;2.35;1.30;;;;;;;8.58;68.34;95842.72;2097282;28;20204;-57
2023/04/24 08:36:52;;;;;;;6.10;1.55;;;;;;;8.74;68.84;95841.94;2088518;28;20212;-57
2023/04/24 08:37:53;;;;;;;5.57;1.45;;;;;;;8.82;68.54;95860.59;2087213;28;20223;-57
2023/04/24 08:38:55;;;;;;;3.83;1.30;;;;;;;8.80;68.20;95849.44;2091347;28;20213;-57
2023/04/24 08:39:56;;;;;;;2.72;1.30;;;;;;;8.96;69.07;95859.91;2089209;28;20205;-57
2023/04/24 08:41:00;;;;;;;5.55;1.50;;;;;;;9.00;68.70;95851.00;2086143;28;20699;-57
2023/04/24 08:42:07;;;;;;;4.60;1.75;;;;;;;8.95;68.50;95842.59;2081684;28;20193;-57
2023/04/24 08:43:10;;;;;;;4.22;1.35;;;;;;;9.08;68.23;95864.50;2090496;28;20196;-57
2023/04/24 08:44:15;;;;;;;6.35;1.50;;;;;;;9.06;68.71;95866.31;2090963;28;20227;-57
2023/04/24 08:45:16;;;;;;;2.08;1.05;;;;;;;9.03;68.46;95869.09;2081804;28;20215;-57
2023/04/24 08:46:19;;;;;;;2.97;1.50;;;;;;;9.02;67.90;95870.00;2081764;28;20244;-57
2023/04/24 08:47:22;;;;;;;3.55;1.70;;;;;;;9.12;69.42;95865.19;2082333;28;20208;-57
2023/04/24 08:48:23;;;;;;;3.88;1.42;;;;;;;9.20;69.67;95868.22;2080890;28;20200;-57
2023/04/24 08:49:33;;;;;;;8.07;1.60;;;;;;;8.94;70.45;95873.00;2080681;28;20240;-57
2023/04/24 08:50:34;;;;;;;4.30;1.50;;;;;;;8.75;70.82;95867.88;2082448;28;20259;-57
2023/04/24 09:00:51;;;;;;;3.22;1.30;;;;;;;8.07;71.89;95880.69;2082200;28;20564;-57
2023/04/24 09:01:54;;;;;;;2.35;1.17;;;;;;;8.10;71.02;95886.56;2082315;28;20526;-58
2023/04/24 09:02:56;;;;;;;2.10;1.25;;;;;;;8.16;70.83;95888.03;2080671;28;20189;-57
2023/04/24 09:04:02;;;;;;;3.15;1.67;;;;;;;8.29;71.52;95888.28;2082166;28;20212;-57
2023/04/24 09:05:05;;;;;;;3.10;1.48;;;;;;;8.21;71.52;95874.81;2082328;28;20198;-57
2023/04/24 09:06:08;;;;;;;4.40;1.50;;;;;;;8.13;71.56;95883.81;2081193;28;20283;-57
2023/04/24 09:07:11;;;;;;;2.05;1.30;;;;;;;8.13;71.43;95873.41;2081982;28;20688;-57
2023/04/24 09:08:14;;;;;;;10.02;1.67;;;;;;;8.14;70.87;95879.47;2081273;28;20211;-57
2023/04/24 09:09:18;;;;;;;4.97;1.45;;;;;;;8.29;71.04;95883.94;2087996;28;20203;-59
2023/04/24 09:10:21;;;;;;;3.25;1.30;;;;;;;8.58;71.23;95886.09;2085643;28;20187;-59
2023/04/24 09:11:24;;;;;;;3.20;1.20;;;;;;;8.78;70.42;95882.50;2082363;28;20226;-59
2023/04/24 09:12:25;;;;;;;2.10;1.20;;;;;;;8.88;70.58;95888.94;2081589;28;20239;-59
2023/04/24 09:13:28;;;;;;;4.82;1.48;;;;;;;8.76;70.73;95861.75;2082151;28;20205;-59
2023/04/24 09:14:31;;;;;;;6.15;1.90;;;;;;;8.97;70.90;95890.25;2079729;28;20275;-59
2023/04/24 09:15:33;;;;;;;3.58;1.10;;;;;;;9.17;70.38;95888.38;2079932;28;20197;-60
2023/04/24 09:16:35;;;;;;;2.85;1.05;;;;;;;9.20;69.79;95893.44;2078670;28;20215;-59
2023/04/24 09:17:37;;;;;;;2.40;1.00;;;;;;;9.29;69.84;95886.00;2080304;28;20530;-59
2023/04/24 09:18:39;;;;;;;4.35;1.30;;;;;;;9.16;69.75;95882.34;2082484;28;20195;-59
2023/04/24 09:19:40;;;;;;;2.10;1.35;;;;;;;9.02;70.35;95879.59;2081794;28;20201;-59
2023/04/24 09:21:04;;;;;;;4.45;1.23;;;;;;;8.89;69.93;95877.59;2083611;28;20219;-59
2023/04/24 09:22:06;;;;;;;5.85;1.35;;;;;;;8.59;70.91;95870.38;2083242;28;20200;-59
2023/04/24 09:23:10;;;;;;;5.07;1.40;;;;;;;8.59;70.76;95873.00;2083247;28;20200;-59
2023/04/24 09:24:22;;;;;;;2.75;1.33;;;;;;;8.70;70.17;95879.41;2081702;28;20438;-59
2023/04/24 09:25:35;;;;;;;3.28;1.58;;;;;;;8.73;70.78;95879.28;2082209;28;20516;-59
2023/04/24 09:26:37;;;;;;;5.32;1.55;;;;;;;8.77;71.02;95876.47;2082160;28;20668;-59
2023/04/24 09:27:45;;;;;;;2.38;1.55;;;;;;;8.60;70.33;95898.09;2081846;28;20201;-59
2023/04/24 09:28:46;;;;;;;6.05;1.42;;;;;;;8.50;71.39;95886.47;2078865;28;20730;-59
2023/04/24 09:29:55;;;;;;;2.90;1.65;;;;;;;8.24;72.27;95901.53;2081966;28;20204;-59
2023/04/24 09:31:04;;;;;;;1.52;1.20;;;;;;;8.13;73.18;95896.81;2081397;28;20221;-59
2023/04/24 09:32:22;;;;;;;4.80;1.30;;;;;;;8.17;73.46;95895.75;2080271;28;20204;-59
2023/04/24 09:33:24;;;;;;;2.30;1.70;;;;;;;8.41;73.67;95908.53;2078711;28;20244;-59
2023/04/24 09:34:26;;;;;;;2.33;1.20;;;;;;;8.29;73.75;95899.56;2080053;28;20196;-59
2023/04/24 09:35:28;;;;;;;5.55;1.27;;;;;;;8.34;73.13;95901.91;2081831;28;20192;-59
2023/04/24 09:36:37;;;;;;;3.60;1.33;;;;;;;8.51;72.34;95906.38;2080994;28;20235;-58
2023/04/24 09:37:42;;;;;;;4.70;1.73;;;;;;;8.33;71.81;95910.66;2080843;28;20249;-59
2023/04/24 09:38:43;;;;;;;3.45;1.60;;;;;;;8.24;71.16;95906.75;2082444;28;20231;-59
2023/04/24 09:39:44;;;;;;;2.28;1.00;;;;;;;8.32;70.50;95919.38;2081790;28;20201;-59
2023/04/24 09:40:46;;;;;;;4.28;1.38;;;;;;;8.25;70.94;95908.44;2082005;28;20287;-59
2023/04/24 09:41:52;;;;;;;2.95;1.10;;;;;;;8.36;70.76;95896.66;2080305;28;20257;-59
2023/04/24 09:43:00;;;;;;;1.55;1.08;;;;;;;9.10;70.69;95898.28;2081307;28;20643;-60
2023/04/24 09:44:34;;;;;;;1.45;0.93;;;;;;;8.92;69.00;95900.03;2082792;28;20195;-61
2023/04/24 09:45:37;;;;;;;5.38;1.60;;;;;;;9.23;68.63;95911.50;2077068;28;20556;-61
2023/04/24 09:46:38;;;;;;;5.60;1.30;;;;;;;9.27;68.14;95903.47;2085987;28;20209;-61
2023/04/24 09:47:41;;;;;;;2.38;1.13;;;;;;;9.39;67.05;95899.38;2081163;28;20616;-61
2023/04/24 09:48:42;;;;;;;3.17;1.10;;;;;;;9.57;66.98;95895.00;2082988;28;20235;-61
2023/04/24 09:49:44;;;;;;;1.65;1.00;;;;;;;9.66;66.97;95908.44;2081076;28;20633;-61
2023/04/24 09:50:46;;;;;;;4.60;1.55;;;;;;;9.63;65.26;95889.44;2081498;28;20197;-61
2023/04/24 09:51:48;;;;;;;1.92;1.23;;;;;;;9.73;65.01;95908.03;2080524;28;20204;-61
2023/04/24 09:53:02;;;;;;;2.35;1.30;;;;;;;9.55;65.20;95904.66;2084237;28;20204;-61
2023/04/24 09:54:13;;;;;;;2.28;1.25;;;;;;;9.71;65.29;95903.84;2081024;28;20201;-61
2023/04/24 09:55:20;;;;;;;4.45;1.40;;;;;;;9.64;64.36;95903.31;2082606;28;20228;-62
2023/04/24 09:56:21;;;;;;;2.20;1.15;;;;;;;9.60;64.57;95887.00;2080850;28;20228;-62
2023/04/24 09:57:23;;;;;;;6.05;1.00;;;;;;;9.43;65.50;95916.56;2079590;28;20251;-61
2023/04/24 09:58:29;;;;;;;3.10;1.02;;;;;;;9.38;64.99;95894.25;2081569;28;20659;-61
2023/04/24 09:59:45;;;;;;;1.50;1.00;;;;;;;9.63;63.27;95907.69;2082070;28;20600;-61
2023/04/24 10:00:47;;;;;;;1.95;1.00;;;;;;;9.62;64.33;95915.59;2080817;28;20240;-62
2023/04/24 10:01:49;;;;;;;3.63;1.65;;;;;;;10.06;64.33;95883.69;2078515;28;20805;-62
2023/04/24 10:02:55;;;;;;;4.55;1.17;;;;;;;10.31;62.47;95898.00;2079617;28;20280;-62
2023/04/24 10:03:56;;;;;;;2.35;0.80;;;;;;;10.44;61.75;95908.63;2081473;28;20276;-62
2023/04/24 10:04:59;;;;;;;3.25;1.20;;;;;;;10.59;61.26;95912.97;2078553;28;20400;-62
2023/04/24 10:06:08;;;;;;;1.95;1.23;;;;;;;10.47;62.42;95918.88;2080603;28;20303;-62
2023/04/24 10:07:09;;;;;;;2.58;1.40;;;;;;;10.62;62.38;95918.00;2085610;28;20196;-61
2023/04/24 10:08:12;;;;;;;2.70;1.27;;;;;;;10.34;61.15;95916.09;2086001;28;20196;-61
2023/04/24 10:09:13;;;;;;;3.55;1.30;;;;;;;10.20;62.23;95918.63;2081281;28;20205;-62
2023/04/24 10:10:16;;;;;;;1.50;1.08;;;;;;;10.11;62.58;95925.19;2082600;28;20201;-61
2023/04/24 10:11:18;;;;;;;1.77;1.10;;;;;;;10.01;61.68;95918.78;2080290;28;20224;-62
2023/04/24 10:12:19;;;;;;;3.60;1.23;;;;;;;9.74;62.48;95921.94;2077867;28;20197;-61
2023/04/24 10:13:21;;;;;;;3.45;1.70;;;;;;;9.79;63.12;95922.53;2076729;28;20197;-62
2023/04/24 10:14:24;;;;;;;5.15;1.90;;;;;;;9.91;63.23;95908.81;2077425;28;20284;-62
2023/04/24 10:15:26;;;;;;;4.90;1.70;;;;;;;9.99;63.12;95933.66;2076841;28;20833;-62
2023/04/24 10:16:30;;;;;;;5.95;1.33;;;;;;;9.91;63.31;95932.28;2077857;28;20286;-62
2023/04/24 10:17:32;;;;;;;1.90;1.05;;;;;;;9.72;63.73;95924.59;2076975;28;20721;-62
2023/04/24 10:18:34;;;;;;;8.30;1.20;;;;;;;9.82;63.36;95929.34;2076235;28;20201;-62
2023/04/24 10:19:37;;;;;;;3.13;1.25;;;;;;;9.75;63.43;95941.84;2073013;28;20894;-61
2023/04/24 10:20:40;;;;;;;7.45;1.25;;;;;;;9.90;63.26;95942.81;2074521;28;20343;-61
2023/04/24 10:21:46;;;;;;;2.25;1.17;;;;;;;10.00;62.22;95932.75;2075438;28;20185;-62
2023/04/24 10:22:52;;;;;;;2.10;1.10;;;;;;;9.96;62.36;95932.88;2075152;28;20607;-62
2023/04/24 10:24:09;;;;;;;3.25;1.25;;;;;;;9.96;62.84;95940.72;2069257;28;20881;-62
2023/04/24 10:25:12;;;;;;;4.72;1.33;;;;;;;9.96;63.36;95937.28;2075556;28;20193;-62
2023/04/24 10:26:17;;;;;;;3.35;1.33;;;;;;;10.10;63.07;95950.41;2075540;28;20216;-62
2023/04/24 10:27:21;;;;;;;4.45;1.40;;;;;;;10.18;62.25;95955.22;2076091;28;20216;-62
2023/04/24 10:28:24;;;;;;;1.65;1.10;;;;;;;10.08;60.96;95959.25;2075983;28;20201;-62
2023/04/24 10:29:26;;;;;;;6.95;1.38;;;;;;;9.96;61.38;95945.94;2072930;28;20212;-62
2023/04/24 10:30:30;;;;;;;4.40;1.05;;;;;;;9.93;62.04;95945.28;2073934;28;20292;-62
2023/04/24 10:31:33;;;;;;;4.35;1.55;;;;;;;9.87;61.53;95943.81;2074759;28;20665;-62
2023/04/24 10:32:34;;;;;;;5.00;1.20;;;;;;;9.83;61.82;95944.06;2076586;28;20244;-62
2023/04/24 10:33:38;;;;;;;5.07;1.33;;;;;;;9.79;62.32;95959.88;2076224;28;20205;-62
2023/04/24 10:34:39;;;;;;;2.80;1.10;;;;;;;9.83;62.93;95952.72;2076576;28;20208;-62
2023/04/24 10:35:45;;;;;;;10.77;1.52;;;;;;;9.70;63.13;95962.09;2073889;28;20202;-62
2023/04/24 10:36:51;;;;;;;2.03;1.00;;;;;;;9.55;63.27;95951.56;2075756;28;20252;-61
2023/04/24 10:38:09;;;;;;;3.72;0.95;;;;;;;9.60;64.78;95959.16;2073030;28;20629;-62
2023/04/24 10:39:14;;;;;;;6.07;1.20;;;;;;;9.34;64.10;95960.47;2075977;28;20200;-61
2023/04/24 10:40:26;;;;;;;3.10;1.17;;;;;;;9.10;63.94;95964.25;2075957;28;20213;-61
2023/04/24 10:41:30;;;;;;;2.90;1.00;;;;;;;9.11;64.61;95963.31;2076052;28;20252;-62
2023/04/24 10:42:32;;;;;;;3.05;1.33;;;;;;;9.02;64.68;95957.72;2076074;28;20202;-62
2023/04/24 10:43:33;;;;;;;2.10;1.40;;;;;;;9.05;65.00;95963.59;2075063;28;20570;-61
2023/04/24 10:53:13;;;;;;;1.65;1.02;;;;;;;8.62;67.24;95966.56;2084841;28;20588;-59
2023/04/24 10:54:26;;;;;;;3.35;1.30;;;;;;;8.71;66.89;95973.09;2082687;28;20197;-59
2023/04/24 10:55:50;;;;;;;2.70;1.33;;;;;;;8.66;66.73;95968.09;2082278;28;20655;-60
2023/04/24 10:56:52;;;;;;;4.10;1.50;;;;;;;8.81;66.40;95966.50;2082380;28;20250;-59
2023/04/24 10:58:04;;;;;;;2.15;1.27;;;;;;;9.00;66.21;95970.81;2081265;28;20192;-59
2023/04/24 10:59:09;;;;;;;3.53;1.00;;;;;;;9.29;66.22;95971.13;2084390;28;20283;-59
2023/04/24 11:00:20;;;;;;;2.20;1.30;;;;;;;9.48;65.98;95974.50;2085046;28;20202;-59
2023/04/24 11:01:29;;;;;;;2.83;1.30;;;;;;;9.69;65.33;95971.69;2083360;28;20284;-61
2023/04/24 11:02:40;;;;;;;3.60;1.25;;;;;;;9.72;64.09;95973.31;2082306;28;20587;-61
2023/04/24 11:03:50;;;;;;;3.50;1.48;;;;;;;9.85;63.90;95969.13;2083124;28;20239;-61
2023/04/24 11:04:52;;;;;;;6.68;1.40;;;;;;;9.93;63.31;95966.13;2082113;28;20200;-62
2023/04/24 11:06:01;;;;;;;2.05;1.27;;;;;;;10.21;62.60;95973.31;2078678;28;20237;-62
2023/04/24 11:07:03;;;;;;;2.42;1.48;;;;;;;9.99;61.60;95972.78;2080575;28;20228;-61
2023/04/24 11:08:13;;;;;;;2.10;1.30;;;;;;;9.89;61.93;95975.88;2082063;28;20204;-61
2023/04/24 11:09:16;;;;;;;3.85;1.65;;;;;;;9.93;62.32;95980.00;2081674;28;20204;-62
2023/04/24 11:10:27;;;;;;;1.63;1.02;;;;;;;10.01;62.76;95969.16;2080759;28;20193;-62
2023/04/24 11:11:29;;;;;;;2.63;1.10;;;;;;;10.01;63.06;95955.28;2080798;28;20220;-62
2023/04/24 11:12:35;;;;;;;4.32;1.50;;;;;;;10.15;63.04;95971.03;2081453;28;20652;-61
2023/04/24 11:13:54;;;;;;;3.83;1.35;;;;;;;9.94;63.66;95971.25;2080817;28;20201;-61
2023/04/24 11:14:59;;;;;;;5.97;1.42;;;;;;;9.83;63.80;95963.16;2079247;28;20664;-62
2023/04/24 11:16:34;;;;;;;6.05;1.55;;;;;;;9.69;63.38;95973.44;2082232;28;20223;-67
2023/04/24 11:23:37;;;;;;;3.80;1.50;;;;;;;9.56;66.07;95976.72;2089914;28;21057;-65
2023/04/24 11:24:40;;;;;;;1.80;1.10;;;;;;;9.54;65.76;95983.75;2090558;28;20192;-65
2023/04/24 11:25:42;;;;;;;1.48;1.10;;;;;;;9.31;66.52;95964.09;2088878;28;20208;-67
2023/04/24 11:26:44;;;;;;;2.92;1.50;;;;;;;9.30;65.40;95984.06;2086189;28;20205;-67
2023/04/24 11:27:47;;;;;;;2.05;1.60;;;;;;;9.30;65.14;95973.66;2086094;28;20703;-67
2023/04/24 11:28:50;;;;;;;2.30;1.20;;;;;;;9.22;64.78;95975.81;2085447;28;20264;-67
2023/04/24 11:29:54;;;;;;;3.65;1.40;;;;;;;9.51;64.44;95980.47;2085438;28;20209;-67
2023/04/24 11:30:57;;;;;;;2.58;1.38;;;;;;;9.69;63.30;95971.69;2090823;28;20771;-67
2023/04/24 11:32:18;;;;;;;3.10;1.35;;;;;;;10.03;63.05;95979.50;2086042;28;20718;-68
2023/04/24 11:33:21;;;;;;;3.15;1.60;;;;;;;10.14;61.66;95977.19;2078104;28;20228;-67
2023/04/24 11:34:23;;;;;;;4.05;1.60;;;;;;;10.20;62.33;95976.03;2077521;28;20197;-67
2023/04/24 11:35:24;;;;;;;2.83;1.65;;;;;;;10.29;61.30;95983.34;2076379;28;20657;-67
2023/04/24 11:36:26;;;;;;;3.20;1.50;;;;;;;9.99;61.04;95978.00;2075503;28;20248;-68
2023/04/24 11:37:34;;;;;;;3.67;1.40;;;;;;;10.02;61.55;95975.22;2075816;28;20224;-67
2023/04/24 11:38:35;;;;;;;2.92;1.45;;;;;;;10.47;61.75;95970.25;2075822;28;20197;-68
2023/04/24 11:39:37;;;;;;;16.15;1.65;;;;;;;10.64;61.65;95961.47;2075720;28;20201;-67
2023/04/24 11:40:38;;;;;;;3.72;1.35;;;;;;;10.86;60.61;95975.00;2075810;28;20364;-67
2023/04/24 11:41:41;;;;;;;3.05;1.30;;;;;;;10.52;60.87;95981.28;2077655;28;20201;-68
2023/04/24 11:42:47;;;;;;;1.60;1.00;;;;;;;10.69;60.65;95968.13;2077777;28;20212;-67
2023/04/24 11:43:50;;;;;;;5.22;1.65;;;;;;;10.89;60.61;95964.41;2078060;28;20688;-67
2023/04/24 11:44:54;;;;;;;1.90;1.20;;;;;;;10.44;61.30;95968.66;2077376;28;20197;-68
2023/04/24 11:45:59;;;;;;;1.52;1.08;;;;;;;10.44;62.71;95966.88;2075667;28;20227;-67
2023/04/24 11:47:01;;;;;;;4.50;1.30;;;;;;;10.30;62.66;95974.59;2077981;28;20277;-68
2023/04/24 11:48:03;;;;;;;2.10;1.30;;;;;;;10.07;62.47;95973.22;2077974;28;20201;-67
2023/04/24 11:49:05;;;;;;;2.38;1.17;;;;;;;9.92;62.66;95972.28;2077844;28;20291;-67
2023/04/24 11:50:09;;;;;;;2.70;1.30;;;;;;;9.85;62.40;95983.94;2076877;28;20197;-67
2023/04/24 11:51:12;;;;;;;2.75;1.35;;;;;;;9.70;62.47;95982.97;2076279;28;20213;-67
2023/04/24 11:52:16;;;;;;;3.60;1.65;;;;;;;9.51;62.92;95986.53;2077542;28;20197;-66
2023/04/24 11:53:21;;;;;;;2.45;1.20;;;;;;;9.50;63.30;95977.03;2078036;28;20651;-67
2023/04/24 11:54:23;;;;;;;3.70;1.35;;;;;;;9.64;63.10;95971.94;2077042;28;20212;-66
2023/04/24 11:55:26;;;;;;;3.30;1.50;;;;;;;9.53;62.76;95982.06;2076683;28;20289;-66
2023/04/24 11:56:28;;;;;;;2.72;1.33;;;;;;;9.47;63.41;95990.19;2075506;28;20600;-66
2023/04/24 11:57:34;;;;;;;5.97;1.40;;;;;;;9.56;62.85;95984.53;2077096;28;20205;-66
2023/04/24 11:58:37;;;;;;;2.20;1.08;;;;;;;9.58;62.85;95985.28;2078143;28;20201;-66
2023/04/24 11:59:39;;;;;;;3.67;1.00;;;;;;;9.54;63.05;95995.97;2078757;28;20232;-66
2023/04/24 12:00:40;;;;;;;1.83;1.35;;;;;;;9.64;63.07;95995.41;2077601;28;20205;-66
2023/04/24 12:01:44;;;;;;;2.65;1.27;;;;;;;9.86;62.80;96002.09;2077141;28;20197;-66
2023/04/24 12:02:45;;;;;;;4.75;1.20;;;;;;;9.92;63.14;95996.56;2078474;28;20273;-66
2023/04/24 12:03:48;;;;;;;2.80;1.30;;;;;;;10.00;62.35;95998.78;2077529;28;20248;-67
2023/04/24 12:04:51;;;;;;;3.25;1.33;;;;;;;10.32;61.43;95993.59;2075388;28;20200;-66
2023/04/24 12:06:05;;;;;;;5.00;1.70;;;;;;;10.20;61.11;95989.91;2075499;28;20316;-66
2023/04/24 12:07:08;;;;;;;3.53;1.60;;;;;;;10.23;60.24;96020.19;2076568;28;20295;-66
2023/04/24 12:08:09;;;;;;;3.28;1.25;;;;;;;10.03;60.84;95993.41;2076029;28;20569;-67
2023/04/24 12:09:12;;;;;;;2.00;1.27;;;;;;;9.91;61.86;95989.66;2075126;28;20224;-66